メインページ
METAR-TAF:

METAR-TAF

空港 :

台北, 台湾

台湾桃園国際空港

緯度: 25-05N, 経度: 121-13E, 海抜: 33m

現時点の気象観測

当レポートは15分前の01:00(UTC)に作成
西/南西の風 9kt
気温 27°C
湿度 89%
気圧 1009 hPa
視程10km以上
高度1000ftの雲はほとんどない
高度1400ftの雲は散在している
高度3000ftの千切れ雲あり

METAR: RCTP 230100Z 24009KT 9999 FEW010 SCT014 BKN030 27/25 Q1009 NOSIG RMK A2981

時間: 09:15 (01:15 UTC)

予報

当レポートは1時間27分前の23:48(UTC)に作成
予報は23日の 00時(UTC)から 24日の 06時(UTC)まで有効
西/南西の風 5kt
視程10km以上
高度1500ftの雲はほとんどない
高度3200ftの千切れ雲あり
23日の 00時(UTC)から 23日の 03時(UTC)まで一時的に
高度800ftの雲はほとんどない
高度1400ftの千切れ雲あり
高度2500ftの千切れ雲あり
23日の 05時(UTC)から 23日の 11時(UTC)まで一時的に
西/北西の風 8kt
23日の 20時(UTC)から 24日の 01時(UTC)まで一時的に
南西の風 10kt
高度800ftの雲は散在している
高度1300ftの千切れ雲あり
高度3500ftの千切れ雲あり
24日の 01時(UTC)から 24日の 03時(UTC)まで徐々に
西の風 10kt
24日の 02時(UTC)から 24日の 06時(UTC)まで一時的に
視程: 5000m
高度700ftの雲は散在している
高度1100ftの千切れ雲あり
高度3000ftの千切れ雲あり
にわか雨

TAF: RCTP 222348Z 2300/2406 25005KT 9999 FEW015 BKN032 TEMPO 2300/2303 FEW008 BKN014 BKN025 TEMPO 2305/2311 30008KT TEMPO 2320/2401 23010KT SCT008 BKN013 BKN035 BECMG 2401/2403 26010KT TEMPO 2402/2406 5000 SHRA SCT007 BKN011 BKN030

4,000以上の空港の気象観測と天気予報(METAR報とTAF報)

利用可能な観測所は地図上に黄色い丸と赤い丸で示す。

丸の上にカーソルを重ねると観測所名を参照できる。

次にクリックすると気象観測と天気予報を参照できる。

マップの切り替え:黒色「×」印の緑ボタンをクリックして拡大、「-」印の緑ボタンをクリックして縮小、緑色の三角印をクリックして隣りの地図に切り替え


METAR-TAF: